Time;durP1;ratioP1;P1;durP2;ratioP2;P2;SDS_P1;SDS_P2;PMS_P1;PMS_P2;Temp;Humidity;BMP_temperature;BMP_pressure;BME280_temperature;BME280_humidity;BME280_pressure;Samples;Min_cycle;Max_cycle;Signal;HPM_P1;HPM_P2
2022/08/04 00:03:01;;;;;;;30.25;16.25;;;19.70;90.50;;;;;;5013619;28;20181;-89
2022/08/04 00:05:40;;;;;;;32.35;15.63;;;19.70;90.40;;;;;;4994272;28;20205;-89
2022/08/04 00:08:31;;;;;;;24.67;14.52;;;19.70;90.30;;;;;;5013665;28;20610;-89
2022/08/04 00:10:59;;;;;;;22.70;13.90;;;19.70;90.10;;;;;;5013545;28;20220;-90
2022/08/04 00:13:27;;;;;;;26.95;14.70;;;19.70;89.80;;;;;;5013418;28;20268;-89
2022/08/04 00:16:04;;;;;;;27.73;13.57;;;19.70;89.50;;;;;;5013378;28;20663;-89
2022/08/04 00:18:39;;;;;;;20.75;13.02;;;19.70;89.20;;;;;;5013161;28;20162;-90
2022/08/04 00:21:08;;;;;;;23.42;12.00;;;19.70;89.30;;;;;;5013303;28;20181;-89
2022/08/04 00:23:35;;;;;;;23.13;12.07;;;19.70;89.00;;;;;;5014479;28;20260;-90
2022/08/04 00:26:01;;;;;;;26.50;12.48;;;19.70;88.80;;;;;;5013221;28;20193;-89
2022/08/04 00:28:28;;;;;;;26.35;12.98;;;19.70;88.60;;;;;;5013002;28;20205;-90
2022/08/04 00:30:54;;;;;;;19.27;12.27;;;19.70;88.30;;;;;;5014517;28;20180;-90
2022/08/04 00:33:20;;;;;;;19.52;11.80;;;19.70;88.00;;;;;;5013086;28;20177;-90
2022/08/04 00:35:47;;;;;;;32.10;13.48;;;19.70;87.80;;;;;;5013602;28;20730;-90
2022/08/04 00:38:16;;;;;;;29.63;13.23;;;19.70;87.80;;;;;;5015136;28;20207;-91
2022/08/04 00:41:23;;;;;;;30.17;14.40;;;19.80;88.20;;;;;;5013888;28;20562;-90
2022/08/04 00:44:12;;;;;;;20.35;13.68;;;19.90;88.90;;;;;;5012884;28;20180;-91
2022/08/04 00:47:15;;;;;;;31.73;14.98;;;19.80;89.40;;;;;;5013070;28;20209;-90
2022/08/04 00:50:03;;;;;;;26.70;14.57;;;19.80;89.80;;;;;;5012995;28;20232;-90
2022/08/04 00:52:51;;;;;;;29.15;15.02;;;19.80;90.00;;;;;;5012715;28;20612;-90
2022/08/04 00:55:41;;;;;;;24.35;13.73;;;19.80;90.20;;;;;;5012409;28;20676;-90
2022/08/04 00:58:58;;;;;;;20.15;12.88;;;19.80;90.30;;;;;;5012709;28;20158;-90
2022/08/04 01:01:40;;;;;;;23.38;11.73;;;19.80;90.20;;;;;;5002072;28;20189;-89
2022/08/04 01:04:19;;;;;;;19.90;10.77;;;19.70;90.10;;;;;;5012736;28;20200;-88
2022/08/04 01:07:06;;;;;;;17.10;9.13;;;19.60;89.90;;;;;;5012436;28;20296;-88
2022/08/04 01:10:02;;;;;;;19.05;10.27;;;19.60;89.70;;;;;;5012548;28;20181;-88
2022/08/04 01:12:48;;;;;;;16.90;9.95;;;19.50;89.50;;;;;;5012461;28;20165;-88
2022/08/04 01:15:45;;;;;;;20.80;12.60;;;19.50;89.50;;;;;;5012407;28;20166;-89
2022/08/04 01:18:36;;;;;;;20.55;12.65;;;19.60;90.00;;;;;;5012491;28;20180;-89
2022/08/04 01:21:29;;;;;;;27.08;13.77;;;19.50;90.30;;;;;;5012502;28;20593;-89
2022/08/04 01:24:18;;;;;;;23.90;13.82;;;19.50;90.60;;;;;;5012434;28;20177;-89
2022/08/04 01:26:58;;;;;;;27.77;14.02;;;19.50;90.70;;;;;;5012345;28;20201;-88
2022/08/04 01:29:26;;;;;;;26.30;14.00;;;19.40;90.70;;;;;;5013050;28;20172;-89
2022/08/04 01:32:18;;;;;;;21.73;14.32;;;19.30;90.80;;;;;;5012524;28;20177;-89
2022/08/04 01:34:54;;;;;;;27.00;13.07;;;19.30;90.90;;;;;;4994702;28;20268;-89
2022/08/04 01:37:50;;;;;;;19.45;13.23;;;19.30;90.90;;;;;;5012224;28;20197;-89
2022/08/04 01:40:16;;;;;;;24.90;12.52;;;19.30;90.70;;;;;;5014552;28;20174;-89
2022/08/04 01:42:44;;;;;;;23.35;12.73;;;19.30;90.50;;;;;;5017436;28;20181;-88
2022/08/04 01:45:11;;;;;;;14.02;10.40;;;19.30;90.20;;;;;;5017177;28;20169;-89
2022/08/04 01:47:41;;;;;;;23.60;12.27;;;19.30;90.00;;;;;;5017277;28;20188;-88
2022/08/04 01:50:12;;;;;;;14.52;9.88;;;19.30;89.60;;;;;;5016076;28;20260;-88
2022/08/04 01:52:39;;;;;;;16.30;9.10;;;19.30;89.50;;;;;;5016027;28;20170;-88
2022/08/04 01:55:09;;;;;;;17.05;9.20;;;19.20;89.20;;;;;;5015907;28;20205;-88
2022/08/04 01:57:56;;;;;;;19.30;9.60;;;19.20;88.90;;;;;;5017259;28;20200;-88
2022/08/04 02:00:26;;;;;;;17.88;9.35;;;19.20;88.90;;;;;;5031851;28;20189;-89
2022/08/04 02:02:52;;;;;;;11.90;9.18;;;19.20;88.80;;;;;;5015872;28;20243;-89
2022/08/04 02:05:21;;;;;;;15.60;8.00;;;19.20;88.70;;;;;;5015861;28;20288;-88
2022/08/04 02:08:16;;;;;;;22.42;8.00;;;19.20;88.60;;;;;;5015857;28;20255;-89
2022/08/04 02:10:42;;;;;;;16.17;8.20;;;19.10;88.40;;;;;;5024128;28;20189;-89
2022/08/04 02:13:16;;;;;;;14.07;7.50;;;19.10;88.20;;;;;;5015678;28;20531;-88
2022/08/04 02:16:11;;;;;;;11.70;7.03;;;19.00;88.10;;;;;;5015757;28;20200;-88
2022/08/04 02:18:59;;;;;;;13.73;6.00;;;19.00;87.90;;;;;;5015515;28;20197;-88
2022/08/04 02:21:28;;;;;;;12.02;7.55;;;19.00;87.70;;;;;;5016545;28;20674;-88
2022/08/04 02:24:01;;;;;;;21.15;7.35;;;19.00;87.60;;;;;;5016725;28;20181;-88
2022/08/04 02:26:28;;;;;;;9.65;6.20;;;18.90;87.30;;;;;;5015286;28;20216;-89
2022/08/04 02:29:09;;;;;;;12.18;6.35;;;18.90;87.20;;;;;;5016609;28;20165;-88
2022/08/04 02:31:53;;;;;;;10.65;5.93;;;18.80;87.20;;;;;;5015352;28;20166;-88
2022/08/04 02:34:28;;;;;;;13.30;6.68;;;18.80;87.10;;;;;;5015328;28;20181;-89
2022/08/04 02:36:55;;;;;;;13.13;5.97;;;18.80;87.00;;;;;;5016373;28;20197;-88
2022/08/04 02:39:22;;;;;;;17.20;6.43;;;18.80;86.90;;;;;;5015136;28;20187;-89
2022/08/04 02:41:49;;;;;;;10.43;5.20;;;18.80;86.90;;;;;;5016390;28;20702;-89
2022/08/04 02:44:21;;;;;;;11.52;5.50;;;18.80;86.90;;;;;;5015079;28;20185;-88
2022/08/04 02:46:51;;;;;;;13.27;5.40;;;18.80;86.80;;;;;;5014933;28;20221;-88
2022/08/04 02:49:18;;;;;;;10.45;6.03;;;18.70;86.70;;;;;;5015101;28;20166;-88
2022/08/04 02:51:50;;;;;;;11.55;6.07;;;18.70;86.80;;;;;;5013621;28;20181;-89
2022/08/04 02:54:18;;;;;;;15.98;5.93;;;18.70;86.80;;;;;;5016118;28;20174;-88
2022/08/04 02:56:45;;;;;;;15.68;6.93;;;18.70;86.80;;;;;;5015964;28;20193;-88
2022/08/04 02:59:12;;;;;;;13.95;6.47;;;18.60;86.80;;;;;;5015954;28;20204;-88
2022/08/04 03:01:39;;;;;;;9.65;5.72;;;18.60;86.80;;;;;;5014868;28;20597;-88
2022/08/04 03:04:16;;;;;;;16.85;5.82;;;18.60;86.80;;;;;;5014679;28;20181;-88
2022/08/04 03:07:19;;;;;;;8.57;5.68;;;18.60;87.00;;;;;;5014665;28;20589;-88
2022/08/04 03:10:14;;;;;;;12.10;5.63;;;18.50;87.00;;;;;;5015989;28;20180;-88
2022/08/04 03:13:11;;;;;;;8.73;5.65;;;18.50;87.10;;;;;;5014766;28;20574;-88
2022/08/04 03:16:26;;;;;;;17.50;5.95;;;18.50;87.20;;;;;;4998226;28;20239;-88
2022/08/04 03:19:23;;;;;;;13.75;6.43;;;18.50;87.50;;;;;;5005801;28;20192;-88
2022/08/04 03:22:00;;;;;;;13.63;5.90;;;18.50;88.60;;;;;;5014456;28;20182;-88
2022/08/04 03:24:28;;;;;;;14.38;6.07;;;18.50;89.00;;;;;;5014546;28;20223;-88
2022/08/04 03:27:10;;;;;;;12.60;6.78;;;18.50;88.80;;;;;;5014115;28;20241;-89
2022/08/04 03:29:58;;;;;;;11.23;6.00;;;18.50;89.00;;;;;;5015558;28;20162;-88
2022/08/04 03:32:42;;;;;;;17.08;6.25;;;18.40;88.80;;;;;;5014250;28;20513;-89
2022/08/04 03:35:26;;;;;;;13.13;5.32;;;18.40;88.50;;;;;;5014043;28;20196;-88
2022/08/04 03:38:13;;;;;;;10.75;5.43;;;18.30;88.20;;;;;;5014233;28;20173;-88
2022/08/04 03:40:56;;;;;;;11.75;4.78;;;18.30;88.00;;;;;;5015295;28;20165;-88
2022/08/04 03:44:08;;;;;;;20.67;6.55;;;18.30;87.80;;;;;;5013994;28;20185;-88
2022/08/04 03:47:05;;;;;;;13.90;5.35;;;18.20;87.70;;;;;;5022360;28;20221;-87
2022/08/04 03:49:52;;;;;;;12.25;5.63;;;18.20;87.60;;;;;;5015125;28;20252;-88
2022/08/04 03:55:47;;;;;;;17.35;4.80;;;18.20;87.90;;;;;;5015030;28;20200;-88
2022/08/04 03:58:50;;;;;;;12.45;5.35;;;18.40;88.10;;;;;;5014036;28;20181;-88
2022/08/04 04:01:36;;;;;;;14.82;5.30;;;18.70;87.60;;;;;;5013654;28;20181;-88
2022/08/04 04:04:05;;;;;;;11.60;4.80;;;18.70;86.90;;;;;;5014713;28;20162;-88
2022/08/04 04:06:49;;;;;;;13.30;4.90;;;18.70;86.50;;;;;;5013391;28;20225;-88
2022/08/04 04:09:35;;;;;;;14.50;5.40;;;18.80;86.10;;;;;;5013541;28;20170;-88
2022/08/04 04:12:38;;;;;;;9.38;5.18;;;18.90;85.80;;;;;;5013452;28;20166;-88
2022/08/04 04:15:34;;;;;;;14.50;5.63;;;19.10;85.80;;;;;;5013323;28;20231;-88
2022/08/04 04:18:06;;;;;;;19.35;5.82;;;19.10;85.80;;;;;;5013492;28;20177;-88
2022/08/04 04:20:37;;;;;;;11.73;5.10;;;19.20;86.20;;;;;;5013393;28;20182;-88
2022/08/04 04:23:24;;;;;;;12.23;5.10;;;19.20;86.30;;;;;;5013287;28;20170;-88
2022/08/04 04:26:10;;;;;;;11.85;5.03;;;19.20;86.60;;;;;;5013197;28;20201;-88
2022/08/04 04:29:08;;;;;;;10.82;4.50;;;19.30;86.90;;;;;;5019182;28;20221;-88
2022/08/04 04:31:36;;;;;;;8.60;4.05;;;19.30;87.00;;;;;;5013210;28;20723;-88
2022/08/04 04:34:37;;;;;;;11.40;5.15;;;19.30;87.60;;;;;;5013122;28;20371;-88
2022/08/04 04:37:24;;;;;;;10.32;4.40;;;19.50;88.30;;;;;;5016837;28;20201;-88
2022/08/04 04:40:00;;;;;;;11.63;4.57;;;19.50;88.40;;;;;;5013215;28;20169;-88
2022/08/04 04:42:41;;;;;;;6.97;4.20;;;19.60;88.90;;;;;;5014463;28;20157;-88
2022/08/04 04:45:23;;;;;;;18.58;4.50;;;19.70;88.80;;;;;;5012780;28;20165;-88
2022/08/04 04:48:25;;;;;;;7.40;4.13;;;19.70;88.80;;;;;;5012831;28;20683;-88
2022/08/04 04:51:30;;;;;;;9.27;4.63;;;19.70;89.00;;;;;;5012852;28;20161;-89
2022/08/04 04:54:15;;;;;;;10.52;4.22;;;19.90;89.10;;;;;;5012844;28;20292;-88
2022/08/04 04:56:47;;;;;;;8.00;4.30;;;19.90;88.90;;;;;;5012747;28;20540;-88
2022/08/04 04:59:17;;;;;;;7.35;4.13;;;20.00;88.90;;;;;;5012743;28;20238;-88
2022/08/04 05:02:18;;;;;;;14.68;4.30;;;20.00;88.80;;;;;;5012628;28;20612;-89
2022/08/04 05:05:23;;;;;;;11.15;3.75;;;20.00;88.80;;;;;;5012617;28;20166;-88
2022/08/04 05:07:51;;;;;;;10.90;3.92;;;20.20;88.90;;;;;;5012463;28;20284;-89
2022/08/04 05:10:29;;;;;;;7.93;3.50;;;20.20;88.90;;;;;;5012558;28;20180;-89
2022/08/04 05:13:10;;;;;;;7.07;3.40;;;20.20;89.00;;;;;;5012553;28;20180;-89
2022/08/04 05:15:41;;;;;;;10.85;4.22;;;20.20;89.00;;;;;;5012958;28;20196;-88
2022/08/04 05:18:11;;;;;;;16.23;4.75;;;20.30;89.10;;;;;;5012439;28;20631;-88
2022/08/04 05:20:42;;;;;;;6.00;3.40;;;20.30;89.30;;;;;;5012272;28;20565;-89
2022/08/04 05:23:18;;;;;;;9.90;3.67;;;20.50;89.30;;;;;;5012400;28;20628;-88
2022/08/04 05:25:58;;;;;;;9.43;3.83;;;20.60;89.30;;;;;;5013716;28;20204;-89
2022/08/04 05:28:23;;;;;;;10.10;3.22;;;20.70;89.30;;;;;;5012211;28;20188;-89
2022/08/04 05:31:10;;;;;;;11.05;3.97;;;20.80;89.20;;;;;;5012241;28;20170;-89
2022/08/04 05:33:42;;;;;;;12.85;3.60;;;20.90;88.90;;;;;;5012183;28;20176;-89
2022/08/04 05:36:15;;;;;;;8.27;3.67;;;21.00;88.70;;;;;;5012187;28;20248;-89
2022/08/04 05:38:42;;;;;;;9.93;3.80;;;21.10;88.80;;;;;;5013475;28;20165;-89
2022/08/04 05:41:09;;;;;;;8.70;4.25;;;21.20;88.70;;;;;;5013412;28;20181;-89
2022/08/04 05:43:36;;;;;;;10.90;4.13;;;21.30;88.70;;;;;;5012297;28;20177;-89
2022/08/04 05:46:03;;;;;;;10.60;3.85;;;21.50;88.30;;;;;;5012201;28;20316;-89
2022/08/04 05:48:31;;;;;;;21.95;4.05;;;21.60;87.90;;;;;;5012033;28;20227;-88
2022/08/04 05:50:58;;;;;;;14.32;3.95;;;21.70;87.30;;;;;;5012100;28;20182;-89
2022/08/04 05:53:25;;;;;;;11.30;3.90;;;21.80;87.20;;;;;;5011971;28;20173;-89
2022/08/04 05:55:51;;;;;;;5.88;3.13;;;21.90;86.90;;;;;;5011998;28;20205;-89
2022/08/04 05:58:18;;;;;;;12.25;4.10;;;22.00;86.50;;;;;;5012145;28;20280;-89
2022/08/04 06:00:45;;;;;;;11.25;3.90;;;22.00;86.30;;;;;;5012063;28;20181;-89
2022/08/04 06:03:12;;;;;;;12.20;3.80;;;21.90;86.30;;;;;;5012006;28;20721;-89
2022/08/04 06:05:40;;;;;;;14.10;3.55;;;21.90;86.30;;;;;;5014257;28;20193;-88
2022/08/04 06:08:06;;;;;;;8.13;3.70;;;22.00;86.50;;;;;;5012073;28;20228;-90
2022/08/04 06:10:36;;;;;;;12.18;4.03;;;22.00;86.70;;;;;;5012019;28;20652;-89
2022/08/04 06:13:07;;;;;;;10.90;3.40;;;22.10;86.80;;;;;;5011964;28;20181;-89
2022/08/04 06:15:38;;;;;;;11.85;3.83;;;22.10;86.90;;;;;;5011874;28;20201;-89
2022/08/04 06:18:06;;;;;;;10.80;3.72;;;22.20;86.90;;;;;;5013445;28;20212;-89
2022/08/04 06:20:35;;;;;;;12.90;3.50;;;22.40;86.50;;;;;;5011942;28;20306;-89
2022/08/04 06:23:04;;;;;;;5.25;3.25;;;22.50;86.10;;;;;;5011838;28;20667;-89
2022/08/04 06:25:35;;;;;;;10.05;3.60;;;22.60;85.70;;;;;;5013866;28;20284;-89
2022/08/04 06:28:05;;;;;;;9.43;3.13;;;22.70;84.70;;;;;;5015919;28;20598;-89
2022/08/04 06:30:32;;;;;;;12.52;3.90;;;22.90;84.40;;;;;;5015431;28;20185;-89
2022/08/04 06:33:01;;;;;;;12.43;3.78;;;23.00;84.10;;;;;;5015283;28;20184;-89
2022/08/04 06:35:29;;;;;;;13.77;4.10;;;23.20;84.20;;;;;;5015156;28;20228;-89
2022/08/04 06:37:56;;;;;;;11.82;3.90;;;23.20;83.50;;;;;;5015230;28;20260;-89
2022/08/04 06:40:24;;;;;;;23.50;4.55;;;23.30;82.90;;;;;;5016496;28;20170;-89
2022/08/04 06:42:50;;;;;;;12.38;3.85;;;23.40;83.50;;;;;;5015442;28;20659;-89
2022/08/04 06:45:18;;;;;;;10.35;3.80;;;23.60;82.60;;;;;;5014848;28;20288;-89
2022/08/04 06:47:44;;;;;;;14.43;3.40;;;23.80;82.50;;;;;;5016395;28;20201;-89
2022/08/04 06:50:11;;;;;;;12.10;3.72;;;23.80;82.20;;;;;;5015053;28;20185;-89
2022/08/04 06:52:37;;;;;;;19.00;3.50;;;23.90;82.20;;;;;;5016249;28;20173;-89
2022/08/04 06:55:05;;;;;;;7.88;3.25;;;24.10;82.20;;;;;;5014877;28;20659;-89
2022/08/04 06:57:33;;;;;;;16.23;3.45;;;24.10;80.90;;;;;;5015096;28;20192;-89
2022/08/04 07:00:11;;;;;;;12.60;4.03;;;24.20;79.70;;;;;;5014980;28;20319;-90
2022/08/04 07:02:52;;;;;;;6.90;3.05;;;24.40;78.40;;;;;;5014945;28;20173;-89
2022/08/04 07:05:19;;;;;;;11.75;2.85;;;24.50;77.30;;;;;;5016258;28;20193;-88
2022/08/04 07:07:45;;;;;;;16.23;3.60;;;24.80;75.90;;;;;;5015911;28;20197;-87
2022/08/04 07:10:11;;;;;;;14.95;3.13;;;25.00;75.10;;;;;;5015765;28;20169;-86
2022/08/04 07:12:38;;;;;;;8.05;2.88;;;25.10;75.10;;;;;;5014631;28;20173;-89
2022/08/04 07:15:06;;;;;;;7.80;2.72;;;25.20;75.70;;;;;;5015067;28;20276;-89
2022/08/04 07:17:34;;;;;;;12.85;3.60;;;25.30;74.20;;;;;;5014485;28;20181;-89
2022/08/04 07:20:00;;;;;;;13.90;3.50;;;25.50;71.10;;;;;;5014369;28;20718;-89
2022/08/04 07:22:27;;;;;;;17.75;3.30;;;25.50;71.20;;;;;;5014415;28;20181;-89
2022/08/04 07:24:57;;;;;;;18.38;3.90;;;25.40;71.80;;;;;;5015667;28;20212;-89
2022/08/04 07:27:24;;;;;;;15.70;3.25;;;25.30;71.60;;;;;;5014406;28;20205;-89
2022/08/04 07:29:50;;;;;;;9.50;3.35;;;25.30;71.70;;;;;;5014408;28;20598;-89
2022/08/04 07:32:19;;;;;;;11.80;3.30;;;25.30;70.80;;;;;;5014518;28;20549;-89
2022/08/04 07:34:47;;;;;;;11.13;3.13;;;25.30;71.00;;;;;;5014156;28;20174;-89
2022/08/04 07:37:14;;;;;;;12.50;3.47;;;25.40;70.60;;;;;;5014495;28;20197;-89
2022/08/04 07:39:40;;;;;;;8.02;2.80;;;25.50;71.40;;;;;;5015356;28;20182;-89
2022/08/04 07:42:06;;;;;;;15.27;4.00;;;25.70;71.60;;;;;;5014238;28;20185;-89
2022/08/04 07:44:34;;;;;;;8.07;2.75;;;25.90;71.60;;;;;;5015163;28;20177;-88
2022/08/04 07:47:01;;;;;;;11.77;3.17;;;26.20;68.70;;;;;;5013669;28;20216;-88
2022/08/04 07:49:27;;;;;;;11.82;3.50;;;26.20;68.90;;;;;;5014990;28;20669;-89
2022/08/04 07:51:53;;;;;;;19.92;3.10;;;26.30;67.80;;;;;;5014983;28;20197;-88
2022/08/04 07:54:19;;;;;;;15.98;3.53;;;26.40;68.80;;;;;;5013789;28;20174;-88
2022/08/04 07:56:47;;;;;;;10.55;2.60;;;26.40;68.50;;;;;;5013700;28;20198;-88
2022/08/04 07:59:14;;;;;;;17.58;3.15;;;26.50;67.90;;;;;;5014960;28;20257;-89
2022/08/04 08:01:40;;;;;;;13.25;2.80;;;26.60;68.00;;;;;;5015118;28;20174;-89
2022/08/04 08:04:07;;;;;;;20.90;3.83;;;26.70;67.90;;;;;;5013698;28;20173;-89
2022/08/04 08:06:35;;;;;;;15.52;2.90;;;26.90;67.80;;;;;;5014945;28;20189;-89
2022/08/04 08:09:07;;;;;;;10.88;2.95;;;27.10;66.60;;;;;;5013459;28;20177;-89
2022/08/04 08:11:32;;;;;;;10.13;2.90;;;27.30;66.60;;;;;;5013492;28;20173;-89
2022/08/04 08:13:58;;;;;;;17.00;3.05;;;27.50;65.50;;;;;;5014847;28;20174;-89
2022/08/04 08:16:25;;;;;;;8.68;2.45;;;27.60;64.80;;;;;;5014524;28;20229;-90
2022/08/04 08:18:50;;;;;;;11.15;2.70;;;27.70;63.20;;;;;;5013263;28;20184;-89
2022/08/04 08:21:19;;;;;;;10.43;2.83;;;27.90;62.30;;;;;;5013275;28;20174;-89
2022/08/04 08:23:45;;;;;;;12.55;2.67;;;28.00;63.20;;;;;;5013251;28;20170;-89
2022/08/04 08:26:11;;;;;;;10.70;2.47;;;28.00;60.00;;;;;;5014367;28;20205;-89
2022/08/04 08:28:37;;;;;;;8.68;2.58;;;28.00;61.20;;;;;;5013207;28;20207;-89
2022/08/04 08:31:02;;;;;;;6.55;2.67;;;28.10;59.50;;;;;;5013465;28;20200;-90
2022/08/04 08:33:29;;;;;;;8.75;2.40;;;28.20;59.20;;;;;;5013069;28;20177;-90
2022/08/04 08:36:26;;;;;;;17.02;2.80;;;28.30;59.10;;;;;;5013677;28;20264;-89
2022/08/04 08:39:00;;;;;;;6.40;2.58;;;28.40;58.10;;;;;;5014093;28;20721;-90
2022/08/04 08:42:03;;;;;;;15.82;2.80;;;28.40;58.80;;;;;;5013596;28;20165;-90
2022/08/04 08:44:53;;;;;;;12.15;2.97;;;28.40;59.10;;;;;;5014237;28;20157;-89
2022/08/04 08:47:45;;;;;;;9.98;2.60;;;28.60;59.00;;;;;;5013888;28;20240;-89
2022/08/04 08:50:26;;;;;;;12.65;2.92;;;28.70;59.80;;;;;;5013207;28;20227;-90
2022/08/04 08:53:17;;;;;;;12.63;2.80;;;28.90;58.40;;;;;;5012835;28;20200;-90
2022/08/04 08:56:01;;;;;;;10.65;2.65;;;29.10;60.00;;;;;;5012561;28;20283;-89
2022/08/04 08:58:48;;;;;;;11.85;3.03;;;29.20;59.60;;;;;;5012675;28;20181;-88
2022/08/04 09:01:28;;;;;;;6.65;2.30;;;29.30;57.90;;;;;;5013991;28;20233;-90
2022/08/04 09:04:26;;;;;;;10.32;3.05;;;29.20;57.60;;;;;;5014104;28;20168;-91
2022/08/04 09:07:22;;;;;;;12.23;2.80;;;29.20;57.90;;;;;;5012526;28;20209;-90
2022/08/04 09:10:00;;;;;;;8.35;2.25;;;29.40;58.50;;;;;;5013659;28;20639;-86
2022/08/04 09:12:46;;;;;;;12.82;2.70;;;29.60;57.40;;;;;;5012403;28;20177;-86
2022/08/04 09:15:22;;;;;;;12.00;2.83;;;29.70;56.90;;;;;;5012346;28;20257;-87
2022/08/04 09:17:54;;;;;;;8.60;4.22;;;29.90;55.00;;;;;;5012315;28;20620;-86
2022/08/04 09:20:46;;;;;;;16.20;3.85;;;30.00;54.20;;;;;;5013520;28;20166;-87
2022/08/04 09:23:30;;;;;;;6.63;2.05;;;30.00;55.50;;;;;;5012265;28;20177;-87
2022/08/04 09:26:06;;;;;;;8.27;2.20;;;30.20;53.90;;;;;;5012120;28;20193;-86
2022/08/04 09:28:43;;;;;;;6.97;2.60;;;30.30;54.10;;;;;;5012152;28;20201;-87
2022/08/04 09:31:13;;;;;;;9.98;2.45;;;30.40;54.50;;;;;;5013090;28;20256;-87
2022/08/04 09:34:16;;;;;;;5.78;2.63;;;30.50;55.40;;;;;;5012323;28;20248;-87
2022/08/04 09:36:52;;;;;;;19.27;2.50;;;30.50;53.10;;;;;;5027889;28;20683;-87
2022/08/04 09:39:28;;;;;;;8.75;2.72;;;30.70;54.00;;;;;;5012677;28;20176;-87
2022/08/04 09:42:19;;;;;;;5.47;2.20;;;30.80;50.00;;;;;;5013366;28;20157;-87
2022/08/04 09:45:10;;;;;;;3.50;2.20;;;30.70;49.20;;;;;;5013374;28;20182;-86
2022/08/04 09:47:48;;;;;;;5.50;2.20;;;30.60;49.20;;;;;;5012100;28;20672;-85
2022/08/04 09:50:32;;;;;;;5.90;2.67;;;30.40;48.70;;;;;;5013351;28;20165;-86
2022/08/04 09:53:10;;;;;;;4.72;2.15;;;30.60;49.90;;;;;;5013752;28;20158;-85
2022/08/04 09:55:45;;;;;;;5.63;2.00;;;30.90;51.70;;;;;;5012129;28;20200;-86
2022/08/04 09:58:38;;;;;;;6.70;2.50;;;31.00;50.80;;;;;;5014647;28;20528;-85
2022/08/04 10:01:12;;;;;;;9.32;2.20;;;31.10;48.30;;;;;;5014512;28;20284;-85
2022/08/04 10:03:41;;;;;;;11.93;2.47;;;31.20;49.30;;;;;;5017691;28;20162;-86
2022/08/04 10:06:37;;;;;;;9.82;2.10;;;31.30;49.30;;;;;;5016720;28;20197;-85
2022/08/04 10:09:33;;;;;;;4.70;2.22;;;31.40;49.60;;;;;;5016806;28;20211;-86
2022/08/04 10:12:23;;;;;;;4.68;1.85;;;31.50;49.20;;;;;;5017511;28;20169;-85
2022/08/04 10:14:52;;;;;;;5.95;2.00;;;31.60;48.10;;;;;;5017666;28;20173;-86
2022/08/04 10:17:48;;;;;;;9.43;2.08;;;31.90;48.90;;;;;;5015809;28;20193;-85
2022/08/04 10:20:27;;;;;;;8.48;2.00;;;32.10;46.20;;;;;;5017368;28;20165;-86
2022/08/04 10:23:07;;;;;;;6.20;2.05;;;32.00;46.80;;;;;;5017062;28;20571;-86
2022/08/04 10:25:55;;;;;;;5.32;1.80;;;32.30;44.40;;;;;;5016710;28;20255;-85
2022/08/04 10:28:22;;;;;;;3.33;1.90;;;32.30;44.10;;;;;;5018128;28;20193;-85
2022/08/04 10:30:59;;;;;;;4.47;2.10;;;32.50;44.00;;;;;;5015522;28;20181;-86
2022/08/04 10:33:29;;;;;;;5.53;2.28;;;32.60;41.70;;;;;;5017141;28;20565;-85
2022/08/04 10:36:01;;;;;;;3.30;1.75;;;32.70;42.70;;;;;;5015360;28;20733;-86
2022/08/04 10:38:39;;;;;;;4.95;2.17;;;32.80;43.40;;;;;;5016215;28;20244;-88
2022/08/04 10:41:38;;;;;;;6.13;1.73;;;32.60;41.60;;;;;;5015625;28;20172;-87
2022/08/04 10:44:23;;;;;;;1.85;1.60;;;32.10;44.80;;;;;;5016439;28;20176;-89
2022/08/04 10:46:56;;;;;;;3.60;1.90;;;31.90;43.60;;;;;;5014970;28;20256;-89
2022/08/04 10:49:23;;;;;;;4.95;2.08;;;32.00;44.10;;;;;;5015328;28;20192;-89
2022/08/04 10:52:00;;;;;;;5.82;1.60;;;32.10;45.50;;;;;;5016449;28;20165;-89
2022/08/04 10:54:30;;;;;;;4.70;1.83;;;32.40;43.60;;;;;;5015004;28;20174;-89
2022/08/04 10:57:03;;;;;;;16.77;5.95;;;32.60;42.00;;;;;;5014826;28;20219;-89
2022/08/04 10:59:56;;;;;;;4.32;2.28;;;32.50;41.60;;;;;;5016081;28;20169;-89
2022/08/04 11:02:57;;;;;;;7.50;2.80;;;32.50;41.70;;;;;;5016276;28;20166;-90
2022/08/04 11:05:52;;;;;;;7.78;1.65;;;32.50;42.40;;;;;;5015918;28;20203;-89
2022/08/04 11:08:29;;;;;;;3.25;1.92;;;32.50;41.90;;;;;;5014843;28;20582;-88
2022/08/04 11:11:25;;;;;;;4.57;1.55;;;32.60;42.00;;;;;;5015955;28;20558;-88
2022/08/04 11:14:02;;;;;;;4.15;1.50;;;33.00;41.20;;;;;;5013951;28;20169;-88
2022/08/04 11:16:50;;;;;;;3.00;2.20;;;33.00;39.60;;;;;;5014562;28;20193;-88
2022/08/04 11:19:35;;;;;;;6.07;2.00;;;32.60;38.60;;;;;;5015669;28;20178;-88
2022/08/04 11:22:23;;;;;;;5.13;1.70;;;32.60;40.00;;;;;;5014452;28;20181;-88
2022/08/04 11:24:58;;;;;;;9.30;1.90;;;32.70;40.90;;;;;;5030444;28;20193;-88
2022/08/04 11:27:41;;;;;;;5.88;2.20;;;32.80;39.80;;;;;;5016032;28;20236;-88
2022/08/04 11:30:09;;;;;;;4.50;1.88;;;32.70;37.10;;;;;;5015515;28;20644;-88
2022/08/04 11:32:42;;;;;;;4.07;1.60;;;32.40;38.90;;;;;;5014229;28;20176;-89
2022/08/04 11:35:29;;;;;;;11.38;1.95;;;32.60;39.90;;;;;;5015465;28;20164;-89
2022/08/04 11:38:07;;;;;;;4.32;1.50;;;32.90;39.00;;;;;;5014202;28;20188;-89
2022/08/04 11:40:42;;;;;;;2.85;1.73;;;33.20;39.30;;;;;;5014355;28;20284;-89
2022/08/04 11:43:15;;;;;;;2.65;1.63;;;33.40;38.90;;;;;;5014135;28;20285;-89
2022/08/04 11:45:49;;;;;;;2.42;1.70;;;33.40;40.10;;;;;;5015216;28;20667;-89
2022/08/04 11:48:21;;;;;;;1.77;1.60;;;33.30;40.20;;;;;;5014066;28;20574;-90
2022/08/04 11:50:51;;;;;;;5.35;1.98;;;33.20;37.90;;;;;;5014184;28;20169;-89
2022/08/04 11:53:21;;;;;;;6.55;1.90;;;33.20;38.60;;;;;;5015265;28;20235;-89
2022/08/04 11:55:51;;;;;;;3.72;1.60;;;33.50;36.80;;;;;;5014153;28;20216;-89
2022/08/04 11:58:17;;;;;;;3.95;1.83;;;33.70;38.60;;;;;;5014715;28;20213;-89
2022/08/04 12:01:01;;;;;;;2.28;1.58;;;33.90;36.50;;;;;;5013922;28;20177;-89
2022/08/04 12:03:49;;;;;;;2.22;1.75;;;34.10;37.20;;;;;;5013880;28;20224;-89
2022/08/04 12:06:29;;;;;;;3.05;1.80;;;34.10;37.50;;;;;;5013736;28;20232;-90
2022/08/04 12:09:01;;;;;;;4.63;1.80;;;33.70;37.40;;;;;;5014734;28;20184;-89
2022/08/04 12:11:48;;;;;;;5.22;1.60;;;33.90;39.00;;;;;;5014401;28;20196;-89
2022/08/04 12:14:13;;;;;;;5.32;1.73;;;33.90;39.10;;;;;;5013640;28;20165;-89
2022/08/04 12:16:51;;;;;;;2.67;1.80;;;34.20;37.20;;;;;;5014608;28;20693;-89
2022/08/04 12:19:39;;;;;;;2.00;1.80;;;34.20;39.10;;;;;;5014935;28;20157;-90
2022/08/04 12:22:13;;;;;;;3.83;1.90;;;34.00;37.50;;;;;;5020709;28;20204;-90
2022/08/04 12:24:48;;;;;;;4.22;1.77;;;34.40;38.00;;;;;;5013698;28;20165;-90
2022/08/04 12:27:22;;;;;;;2.22;1.90;;;34.20;37.10;;;;;;5014445;28;20196;-90
2022/08/04 12:29:50;;;;;;;3.08;1.75;;;34.40;38.10;;;;;;5013364;28;20180;-89
2022/08/04 12:32:30;;;;;;;4.75;1.63;;;33.80;38.00;;;;;;5013182;28;20178;-90
2022/08/04 12:35:20;;;;;;;3.75;1.60;;;33.40;38.70;;;;;;5013221;28;20244;-89
2022/08/04 12:38:05;;;;;;;5.20;1.83;;;33.50;40.30;;;;;;5013106;28;20173;-89
2022/08/04 12:40:44;;;;;;;5.50;1.80;;;33.70;41.70;;;;;;5013168;28;20520;-90
2022/08/04 12:43:25;;;;;;;9.25;1.95;;;34.20;39.80;;;;;;5014279;28;20153;-89
2022/08/04 12:45:58;;;;;;;6.68;1.80;;;34.60;39.90;;;;;;5014416;28;20200;-90
2022/08/04 12:48:25;;;;;;;6.95;1.95;;;34.90;39.30;;;;;;5013137;28;20193;-90
2022/08/04 12:50:56;;;;;;;3.33;1.90;;;34.60;37.00;;;;;;5014090;28;20172;-90
2022/08/04 12:53:27;;;;;;;2.72;1.92;;;34.10;36.80;;;;;;5014065;28;20157;-89
2022/08/04 12:55:53;;;;;;;4.90;1.80;;;34.40;37.30;;;;;;5013664;28;20288;-89
2022/08/04 12:58:23;;;;;;;1.98;1.58;;;34.40;36.30;;;;;;5014113;28;20181;-90
2022/08/04 13:00:57;;;;;;;8.60;2.15;;;34.40;39.00;;;;;;5013978;28;20710;-89
2022/08/04 13:03:29;;;;;;;2.83;1.80;;;34.40;36.70;;;;;;5014209;28;20173;-89
2022/08/04 13:05:55;;;;;;;3.35;1.80;;;34.50;37.40;;;;;;5013897;28;20193;-89
2022/08/04 13:08:22;;;;;;;7.22;3.00;;;34.50;37.50;;;;;;5013981;28;20568;-90
2022/08/04 13:10:50;;;;;;;2.25;1.67;;;34.00;38.80;;;;;;5014248;28;20174;-90
2022/08/04 13:13:24;;;;;;;8.18;2.03;;;33.80;38.20;;;;;;5015223;28;20174;-90
2022/08/04 13:16:01;;;;;;;9.88;1.60;;;33.70;39.40;;;;;;5014420;28;20193;-92
2022/08/04 13:18:32;;;;;;;4.65;1.70;;;33.80;39.00;;;;;;5014737;28;20158;-91
2022/08/04 13:21:13;;;;;;;2.65;1.90;;;33.60;38.00;;;;;;5015152;28;20575;-90
2022/08/04 13:23:40;;;;;;;5.82;2.05;;;33.50;39.10;;;;;;5014797;28;20196;-91
2022/08/04 13:26:07;;;;;;;5.18;1.88;;;33.40;39.50;;;;;;5013496;28;20223;-91
2022/08/04 13:28:33;;;;;;;3.53;1.70;;;33.40;40.10;;;;;;5014206;28;20567;-91
2022/08/04 13:31:01;;;;;;;5.50;2.13;;;33.20;40.10;;;;;;5013894;28;20177;-91
2022/08/04 13:33:31;;;;;;;5.25;1.90;;;33.10;40.10;;;;;;5012643;28;20548;-91
2022/08/04 13:36:00;;;;;;;9.00;2.17;;;32.90;42.10;;;;;;5011777;28;20675;-90